createdAt,value
2019-04-06T00:02:17.710Z,14.60
2019-04-06T00:04:48.093Z,16.90
2019-04-06T00:07:18.514Z,17.48
2019-04-06T00:09:48.898Z,13.72
2019-04-06T00:12:19.249Z,14.75
2019-04-06T00:14:49.614Z,14.33
2019-04-06T00:17:19.999Z,17.42
2019-04-06T00:19:50.400Z,16.60
2019-04-06T00:22:20.770Z,13.83
2019-04-06T00:24:51.137Z,14.10
2019-04-06T00:27:21.486Z,14.95
2019-04-06T00:29:51.865Z,13.22
2019-04-06T00:32:53.557Z,15.58
2019-04-06T00:35:23.956Z,12.80
2019-04-06T00:37:54.330Z,18.12
2019-04-06T00:40:24.709Z,15.75
2019-04-06T00:42:55.060Z,13.95
2019-04-06T00:45:25.444Z,16.55
2019-04-06T00:47:55.902Z,14.25
2019-04-06T00:50:26.322Z,16.45
2019-04-06T00:52:56.810Z,16.85
2019-04-06T00:55:27.209Z,16.10
2019-04-06T00:57:57.573Z,15.58
2019-04-06T01:00:27.959Z,16.10
2019-04-06T01:02:58.326Z,13.95
2019-04-06T01:05:28.729Z,17.98
2019-04-06T01:07:59.106Z,18.32
2019-04-06T01:10:29.456Z,17.67
2019-04-06T01:12:59.849Z,18.42
2019-04-06T01:15:30.250Z,14.20
2019-04-06T01:18:00.618Z,16.55
2019-04-06T01:20:31.014Z,13.53
2019-04-06T01:23:01.389Z,15.30
2019-04-06T01:25:31.786Z,14.68
2019-04-06T01:28:02.181Z,15.98
2019-04-06T01:30:32.588Z,14.00
2019-04-06T01:33:03.016Z,15.00
2019-04-06T01:35:33.393Z,14.78
2019-04-06T01:38:03.781Z,12.93
2019-04-06T01:40:34.249Z,15.75
2019-04-06T01:43:04.703Z,15.15
2019-04-06T01:45:35.102Z,14.73
2019-04-06T01:48:05.564Z,17.52
2019-04-06T01:50:36.017Z,15.83
2019-04-06T01:53:06.444Z,16.95
2019-04-06T01:55:37.325Z,14.78
2019-04-06T01:58:07.710Z,13.80
2019-04-06T02:00:40.376Z,19.00
2019-04-06T02:03:10.754Z,12.63
2019-04-06T02:05:41.094Z,15.60
2019-04-06T02:08:11.550Z,15.40
2019-04-06T02:10:41.988Z,14.07
2019-04-06T02:13:12.364Z,16.67
2019-04-06T02:15:42.702Z,17.20
2019-04-06T02:18:13.098Z,19.07
2019-04-06T02:20:43.478Z,15.72
2019-04-06T02:23:13.858Z,18.67
2019-04-06T02:25:44.226Z,17.62
2019-04-06T02:28:14.602Z,14.40
2019-04-06T02:31:07.015Z,17.80
2019-04-06T02:33:55.280Z,13.78
2019-04-06T02:36:53.846Z,15.50
2019-04-06T02:39:38.529Z,14.73
2019-04-06T02:42:14.049Z,14.83
2019-04-06T02:44:44.501Z,18.05
2019-04-06T02:47:14.942Z,15.08
2019-04-06T02:49:45.365Z,17.52
2019-04-06T02:52:15.769Z,15.40
2019-04-06T02:54:46.226Z,13.85
2019-04-06T02:57:16.698Z,14.43
2019-04-06T02:59:47.146Z,12.78
2019-04-06T03:02:17.536Z,16.00
2019-04-06T03:04:47.947Z,17.95
2019-04-06T03:07:18.331Z,18.05
2019-04-06T03:09:48.782Z,16.45
2019-04-06T03:12:19.178Z,18.12
2019-04-06T03:14:49.606Z,15.58
2019-04-06T03:17:20.049Z,20.20
2019-04-06T03:19:50.519Z,13.43
2019-04-06T03:22:20.914Z,15.72
2019-04-06T03:24:51.334Z,14.50
2019-04-06T03:27:21.787Z,16.10
2019-04-06T03:29:58.325Z,12.95
2019-04-06T03:32:24.389Z,20.70
2019-04-06T03:34:54.828Z,16.07
2019-04-06T03:37:25.328Z,16.27
2019-04-06T03:39:55.786Z,16.48
2019-04-06T03:42:26.182Z,18.92
2019-04-06T03:44:56.543Z,15.35
2019-04-06T03:47:27.106Z,15.10
2019-04-06T03:49:57.515Z,18.00
2019-04-06T03:52:27.946Z,17.15
2019-04-06T03:54:58.393Z,16.42
2019-04-06T03:57:28.819Z,17.82
2019-04-06T03:59:59.385Z,17.73
2019-04-06T04:02:29.983Z,19.92
2019-04-06T04:05:00.352Z,20.12
2019-04-06T04:07:30.714Z,15.08
2019-04-06T04:10:01.083Z,37.00
2019-04-06T04:12:31.501Z,16.60
2019-04-06T04:15:02.001Z,20.90
2019-04-06T04:17:32.761Z,20.65
2019-04-06T04:20:03.410Z,19.65
2019-04-06T04:22:35.020Z,15.58
2019-04-06T04:25:06.210Z,18.80
2019-04-06T04:27:40.791Z,18.48
2019-04-06T04:30:11.313Z,20.35
2019-04-06T04:32:41.708Z,19.95
2019-04-06T04:35:12.118Z,18.17
2019-04-06T04:37:42.784Z,18.70
2019-04-06T04:40:13.325Z,16.65
2019-04-06T04:42:43.706Z,20.20
2019-04-06T04:45:14.158Z,16.70
2019-04-06T04:47:44.592Z,21.68
2019-04-06T04:50:14.999Z,22.25
2019-04-06T04:52:45.379Z,18.45
2019-04-06T04:55:15.806Z,19.95
2019-04-06T04:57:46.258Z,20.60
2019-04-06T05:00:20.007Z,21.23
2019-04-06T05:02:50.387Z,24.55
2019-04-06T05:05:20.796Z,21.73
2019-04-06T05:07:51.177Z,22.82
2019-04-06T05:10:21.629Z,20.65
2019-04-06T05:12:52.180Z,17.92
2019-04-06T05:15:50.237Z,20.57
2019-04-06T05:18:20.600Z,17.17
2019-04-06T05:20:51.032Z,19.48
2019-04-06T05:23:21.400Z,19.40
2019-04-06T05:25:52.142Z,23.05
2019-04-06T05:28:22.589Z,19.92
2019-04-06T05:30:52.969Z,17.32
2019-04-06T05:33:23.332Z,20.27
2019-04-06T05:35:54.111Z,22.67
2019-04-06T05:38:24.506Z,21.25
2019-04-06T05:40:54.929Z,19.07
2019-04-06T05:43:25.333Z,18.52
2019-04-06T05:45:55.739Z,18.45
2019-04-06T05:48:26.155Z,18.05
2019-04-06T05:50:56.561Z,16.45
2019-04-06T05:53:27.224Z,18.67
2019-04-06T05:55:57.614Z,18.50
2019-04-06T05:58:28.230Z,20.82
2019-04-06T06:00:58.851Z,18.15
2019-04-06T06:03:29.214Z,20.68
2019-04-06T06:05:59.634Z,23.67
2019-04-06T06:08:30.578Z,19.00
2019-04-06T06:11:01.082Z,18.15
2019-04-06T06:13:31.659Z,22.98
2019-04-06T06:16:02.168Z,22.58
2019-04-06T06:18:32.636Z,23.50
2019-04-06T06:21:03.055Z,21.87
2019-04-06T06:23:33.447Z,20.75
2019-04-06T06:26:03.931Z,20.88
2019-04-06T06:28:34.409Z,20.17
2019-04-06T06:31:04.880Z,18.98
2019-04-06T06:33:35.292Z,17.82
2019-04-06T06:36:05.827Z,21.23
2019-04-06T06:38:36.209Z,18.98
2019-04-06T06:41:06.579Z,22.02
2019-04-06T06:43:37.047Z,21.75
2019-04-06T06:46:07.492Z,20.40
2019-04-06T06:48:37.890Z,19.42
2019-04-06T06:51:08.256Z,22.85
2019-04-06T06:53:38.662Z,19.20
2019-04-06T06:56:09.041Z,23.22
2019-04-06T06:58:39.442Z,17.80
2019-04-06T07:01:09.855Z,25.32
2019-04-06T07:03:40.243Z,24.23
2019-04-06T07:06:10.646Z,22.50
2019-04-06T07:08:41.063Z,20.77
2019-04-06T07:11:12.460Z,21.70
2019-04-06T07:13:44.997Z,22.45
2019-04-06T07:16:16.941Z,22.58
2019-04-06T07:18:54.368Z,24.05
2019-04-06T07:21:24.805Z,21.90
2019-04-06T07:23:55.217Z,25.37
2019-04-06T07:26:25.607Z,22.22
2019-04-06T07:28:56.022Z,24.15
2019-04-06T07:31:26.444Z,25.05
2019-04-06T07:33:56.880Z,24.37
2019-04-06T07:36:27.313Z,25.37
2019-04-06T07:38:57.721Z,29.75
2019-04-06T07:41:28.132Z,32.98
2019-04-06T07:43:58.554Z,27.80
2019-04-06T07:46:28.986Z,27.50
2019-04-06T07:49:07.914Z,26.10
2019-04-06T07:51:31.517Z,24.23
2019-04-06T07:54:01.939Z,30.43
2019-04-06T07:56:34.790Z,29.30
2019-04-06T07:59:05.164Z,25.60
2019-04-06T08:01:38.290Z,28.43
2019-04-06T08:04:08.698Z,26.17
2019-04-06T08:06:39.187Z,26.80
2019-04-06T08:09:10.034Z,27.50
2019-04-06T08:11:40.490Z,26.80
2019-04-06T08:14:10.890Z,26.73
2019-04-06T08:16:41.275Z,31.87
2019-04-06T08:19:11.694Z,32.30
2019-04-06T08:21:42.348Z,29.60
2019-04-06T08:24:12.907Z,29.20
2019-04-06T08:26:46.030Z,28.50
2019-04-06T08:29:15.697Z,30.27
2019-04-06T08:31:46.130Z,28.70
2019-04-06T08:34:16.533Z,29.67
2019-04-06T08:36:46.949Z,29.97
2019-04-06T08:39:17.389Z,29.33
2019-04-06T08:41:47.791Z,28.90
2019-04-06T08:44:18.173Z,28.80
2019-04-06T08:46:48.596Z,30.37
2019-04-06T08:49:18.976Z,31.57
2019-04-06T08:51:49.424Z,26.67
2019-04-06T08:54:19.849Z,29.03
2019-04-06T08:56:50.292Z,28.70
2019-04-06T08:59:20.687Z,27.70
2019-04-06T09:01:51.090Z,26.10
2019-04-06T09:04:21.489Z,23.23
2019-04-06T09:06:52.174Z,29.07
2019-04-06T09:09:22.600Z,29.53
2019-04-06T09:11:53.061Z,29.13
2019-04-06T09:14:23.506Z,25.70
2019-04-06T09:16:53.903Z,26.67
2019-04-06T09:19:24.368Z,31.80
2019-04-06T09:21:54.752Z,29.97
2019-04-06T09:24:25.213Z,32.50
2019-04-06T09:26:55.674Z,29.83
2019-04-06T09:29:26.197Z,31.83
2019-04-06T09:31:56.709Z,34.00
2019-04-06T09:34:27.114Z,35.03
2019-04-06T09:36:57.537Z,31.33
2019-04-06T09:39:28.193Z,31.33
2019-04-06T09:41:58.635Z,32.87
2019-04-06T09:45:00.326Z,30.40
2019-04-06T09:47:39.496Z,33.03
2019-04-06T09:50:35.062Z,32.97
2019-04-06T09:53:27.166Z,30.70
2019-04-06T09:56:04.367Z,29.90
2019-04-06T09:58:56.585Z,33.67
2019-04-06T10:01:47.690Z,30.43
2019-04-06T10:04:43.228Z,33.03
2019-04-06T10:07:31.324Z,32.87
2019-04-06T10:10:26.756Z,30.63
2019-04-06T10:13:14.886Z,32.70
2019-04-06T10:16:00.170Z,33.50
2019-04-06T10:18:49.643Z,34.33
2019-04-06T10:21:44.795Z,31.53
2019-04-06T10:24:40.279Z,30.23
2019-04-06T10:27:28.316Z,32.87
2019-04-06T10:30:26.843Z,32.47
2019-04-06T10:33:19.323Z,33.67
2019-04-06T10:36:00.850Z,27.90
2019-04-06T10:39:02.259Z,28.80
2019-04-06T10:42:07.112Z,34.87
2019-04-06T10:45:00.492Z,32.30
2019-04-06T10:47:53.231Z,28.70
2019-04-06T10:50:51.773Z,35.43
2019-04-06T10:53:39.892Z,29.17
2019-04-06T10:56:38.617Z,28.10
2019-04-06T10:59:27.975Z,31.97
2019-04-06T11:02:16.138Z,32.07
2019-04-06T11:04:51.713Z,32.73
2019-04-06T11:07:47.147Z,31.17
2019-04-06T11:10:25.794Z,28.80
2019-04-06T11:13:14.065Z,29.10
2019-04-06T11:15:55.663Z,28.17
2019-04-06T11:18:44.069Z,29.20
2019-04-06T11:21:32.093Z,26.80
2019-04-06T11:24:21.531Z,26.13
2019-04-06T11:26:58.449Z,23.70
2019-04-06T11:29:54.298Z,26.23
2019-04-06T11:32:36.688Z,26.50
2019-04-06T11:35:14.616Z,27.40
2019-04-06T11:37:57.662Z,21.07
2019-04-06T11:40:54.393Z,29.53
2019-04-06T11:43:31.221Z,30.60
2019-04-06T11:46:20.731Z,22.53
2019-04-06T11:49:04.672Z,23.73
2019-04-06T11:51:49.693Z,23.57
2019-04-06T11:54:29.974Z,26.43
2019-04-06T11:57:08.284Z,20.10
2019-04-06T11:59:47.513Z,22.10
2019-04-06T12:02:49.504Z,22.30
2019-04-06T12:05:41.760Z,24.07
2019-04-06T12:08:30.262Z,21.23
2019-04-06T12:11:31.855Z,22.50
2019-04-06T12:14:11.548Z,23.67
2019-04-06T12:16:48.455Z,22.37
2019-04-06T12:19:44.024Z,24.33
2019-04-06T12:22:50.555Z,23.27
2019-04-06T12:25:40.237Z,20.87
2019-04-06T12:28:21.959Z,17.50
2019-04-06T12:31:14.430Z,16.73
2019-04-06T12:34:13.442Z,17.00
2019-04-06T12:36:58.006Z,16.50
2019-04-06T12:39:53.082Z,14.07
2019-04-06T12:42:46.844Z,17.53
2019-04-06T12:45:39.545Z,17.00
2019-04-06T12:48:27.769Z,13.43
2019-04-06T12:51:20.486Z,15.47
2019-04-06T12:54:13.008Z,16.00
2019-04-06T12:56:53.520Z,16.40
2019-04-06T12:59:34.715Z,15.47
2019-04-06T13:02:18.130Z,14.37
2019-04-06T13:05:06.604Z,13.23
2019-04-06T13:07:54.957Z,14.33
2019-04-06T13:10:47.051Z,13.20
2019-04-06T13:13:37.168Z,16.07
2019-04-06T13:16:17.742Z,15.13
2019-04-06T13:19:07.338Z,17.60
2019-04-06T13:21:55.761Z,14.63
2019-04-06T13:25:00.419Z,14.77
2019-04-06T13:27:52.696Z,14.37
2019-04-06T13:30:45.215Z,16.90
2019-04-06T13:33:33.220Z,13.13
2019-04-06T13:36:34.774Z,13.57
2019-04-06T13:39:26.918Z,16.67
2019-04-06T13:42:31.780Z,12.43
2019-04-06T13:45:33.309Z,13.53
2019-04-06T13:48:18.020Z,13.57
2019-04-06T13:50:59.566Z,15.30
2019-04-06T13:53:49.010Z,14.53
2019-04-06T13:56:44.651Z,12.63
2019-04-06T13:59:21.408Z,13.97
2019-04-06T14:02:02.298Z,14.60
2019-04-06T14:04:48.118Z,15.13
2019-04-06T14:07:41.191Z,13.50
2019-04-06T14:10:24.387Z,14.00
2019-04-06T14:13:12.571Z,13.13
2019-04-06T14:16:07.970Z,11.50
2019-04-06T14:19:12.685Z,13.87
2019-04-06T14:21:49.760Z,15.07
2019-04-06T14:24:38.209Z,74.90
2019-04-06T14:27:27.962Z,12.93
2019-04-06T14:30:13.587Z,12.97
2019-04-06T14:33:03.153Z,13.90
2019-04-06T14:35:52.711Z,11.73
2019-04-06T14:38:54.529Z,12.10
2019-04-06T14:41:43.182Z,14.63
2019-04-06T14:44:41.818Z,12.10
2019-04-06T14:47:26.415Z,14.20
2019-04-06T14:50:22.310Z,11.80
2019-04-06T14:53:11.726Z,13.40
2019-04-06T14:56:04.667Z,15.23
2019-04-06T14:59:12.593Z,12.57
2019-04-06T15:02:02.126Z,13.27
2019-04-06T15:05:03.658Z,13.07
2019-04-06T15:07:53.125Z,16.80
2019-04-06T15:10:34.243Z,12.40
2019-04-06T15:13:35.794Z,12.90
2019-04-06T15:16:21.626Z,14.00
2019-04-06T15:19:10.971Z,13.50
2019-04-06T15:21:59.530Z,13.30
2019-04-06T15:25:07.164Z,13.90
2019-04-06T15:28:02.399Z,13.70
2019-04-06T15:31:06.944Z,14.77
2019-04-06T15:34:02.011Z,13.17
2019-04-06T15:36:54.193Z,16.00
2019-04-06T15:39:40.901Z,12.47
2019-04-06T15:42:30.407Z,13.53
2019-04-06T15:45:18.892Z,15.30
2019-04-06T15:48:08.655Z,12.20
2019-04-06T15:51:04.147Z,12.50
2019-04-06T15:54:08.951Z,14.00
2019-04-06T15:56:47.023Z,13.37
2019-04-06T15:59:36.530Z,13.40
2019-04-06T16:02:19.221Z,13.83
2019-04-06T16:04:58.213Z,12.27
2019-04-06T16:07:50.462Z,10.90
2019-04-06T16:10:34.784Z,13.93
2019-04-06T16:13:15.394Z,11.60
2019-04-06T16:16:08.250Z,12.20
2019-04-06T16:18:56.438Z,13.60
2019-04-06T16:21:52.495Z,12.13
2019-04-06T16:24:57.373Z,11.87
2019-04-06T16:27:38.806Z,13.77
2019-04-06T16:30:21.243Z,12.30
2019-04-06T16:33:01.977Z,12.30
2019-04-06T16:36:10.275Z,14.30
2019-04-06T16:39:01.179Z,11.33
2019-04-06T16:41:53.789Z,11.10
2019-04-06T16:44:52.080Z,11.83
2019-04-06T16:47:39.928Z,12.10
2019-04-06T16:50:20.948Z,10.30
2019-04-06T16:53:07.167Z,11.63
2019-04-06T16:56:08.782Z,11.00
2019-04-06T16:58:54.736Z,10.60
2019-04-06T17:01:35.485Z,12.17
2019-04-06T17:04:25.010Z,11.77
2019-04-06T17:07:26.830Z,11.57
2019-04-06T17:10:14.095Z,10.73
2019-04-06T17:13:05.321Z,9.23
2019-04-06T17:16:00.975Z,10.53
2019-04-06T17:18:50.697Z,12.13
2019-04-06T17:21:38.637Z,10.43
2019-04-06T17:24:36.249Z,11.53
2019-04-06T17:27:16.240Z,8.73
2019-04-06T17:30:23.992Z,10.47
2019-04-06T17:33:22.753Z,11.60
2019-04-06T17:36:03.435Z,14.00
2019-04-06T17:38:42.049Z,11.43
2019-04-06T17:41:50.030Z,11.03
2019-04-06T17:44:37.936Z,12.93
2019-04-06T17:47:30.246Z,10.93
2019-04-06T17:50:19.863Z,13.27
2019-04-06T17:53:02.771Z,10.60
2019-04-06T17:56:01.206Z,12.67
2019-04-06T17:58:56.789Z,9.40
2019-04-06T18:01:52.242Z,10.30
2019-04-06T18:04:33.308Z,12.50
2019-04-06T18:07:28.729Z,10.70
2019-04-06T18:10:06.533Z,11.37
2019-04-06T18:12:45.987Z,10.27
2019-04-06T18:15:16.701Z,10.13
2019-04-06T18:17:47.537Z,9.70
2019-04-06T18:20:18.445Z,11.17
2019-04-06T18:22:49.024Z,11.27
2019-04-06T18:25:19.601Z,12.50
2019-04-06T18:27:50.545Z,11.10
2019-04-06T18:30:21.356Z,11.57
2019-04-06T18:33:20.233Z,12.73
2019-04-06T18:35:50.862Z,16.60
2019-04-06T18:38:35.413Z,14.33
2019-04-06T18:41:08.064Z,12.53
2019-04-06T18:43:40.697Z,15.10
2019-04-06T18:46:11.642Z,12.50
2019-04-06T18:48:42.699Z,13.10
2019-04-06T18:51:13.272Z,12.13
2019-04-06T18:53:43.849Z,11.33
2019-04-06T18:56:14.445Z,11.23
2019-04-06T18:58:44.968Z,13.40
2019-04-06T19:01:15.648Z,12.17
2019-04-06T19:03:46.349Z,11.67
2019-04-06T19:06:16.986Z,11.90
2019-04-06T19:08:47.651Z,12.93
2019-04-06T19:11:18.190Z,12.47
2019-04-06T19:13:48.836Z,12.47
2019-04-06T19:16:19.389Z,12.10
2019-04-06T19:18:49.942Z,14.13
2019-04-06T19:21:20.600Z,14.43
2019-04-06T19:23:51.369Z,13.23
2019-04-06T19:26:22.031Z,12.80
2019-04-06T19:28:52.676Z,13.43
2019-04-06T19:31:26.059Z,14.47
2019-04-06T19:33:56.702Z,12.40
2019-04-06T19:36:27.727Z,15.07
2019-04-06T19:38:58.261Z,14.93
2019-04-06T19:41:28.909Z,13.30
2019-04-06T19:43:59.458Z,16.53
2019-04-06T19:46:30.495Z,15.87
2019-04-06T19:49:01.262Z,18.17
2019-04-06T19:51:32.028Z,20.60
2019-04-06T19:54:05.264Z,17.00
2019-04-06T19:56:34.958Z,20.77
2019-04-06T19:59:06.182Z,25.70
2019-04-06T20:01:36.733Z,27.90
2019-04-06T20:04:07.288Z,24.30
2019-04-06T20:06:37.826Z,23.17
2019-04-06T20:09:08.752Z,28.27
2019-04-06T20:11:40.017Z,27.20
2019-04-06T20:14:10.793Z,24.20
2019-04-06T20:16:41.919Z,16.20
2019-04-06T20:19:12.597Z,21.23
2019-04-06T20:21:43.158Z,17.57
2019-04-06T20:24:14.340Z,22.83
2019-04-06T20:26:45.241Z,18.67
2019-04-06T20:29:15.888Z,21.42
2019-04-06T20:31:46.491Z,19.05
2019-04-06T20:34:17.533Z,20.30
2019-04-06T20:36:48.531Z,19.50
2019-04-06T20:39:19.185Z,19.67
2019-04-06T20:41:49.856Z,19.50
2019-04-06T20:44:20.454Z,19.05
2019-04-06T20:46:50.867Z,20.57
2019-04-06T20:49:21.306Z,18.77
2019-04-06T20:51:52.265Z,21.87
2019-04-06T20:54:22.971Z,24.63
2019-04-06T20:56:57.883Z,21.60
2019-04-06T20:59:25.688Z,25.10
2019-04-06T21:01:56.177Z,21.70
2019-04-06T21:04:26.585Z,22.20
2019-04-06T21:06:56.972Z,18.53
2019-04-06T21:09:27.433Z,25.92
2019-04-06T21:11:57.797Z,20.27
2019-04-06T21:14:28.575Z,19.90
2019-04-06T21:16:59.140Z,18.92
2019-04-06T21:19:30.235Z,19.12
2019-04-06T21:22:01.313Z,20.62
2019-04-06T21:24:31.865Z,19.92
2019-04-06T21:27:02.300Z,26.95
2019-04-06T21:29:33.262Z,22.23
2019-04-06T21:32:03.769Z,22.30
2019-04-06T21:34:34.179Z,22.10
2019-04-06T21:37:05.184Z,27.98
2019-04-06T21:39:35.958Z,20.92
2019-04-06T21:42:06.450Z,20.02
2019-04-06T21:44:38.843Z,24.63
2019-04-06T21:47:09.406Z,19.98
2019-04-06T21:49:39.896Z,20.48
2019-04-06T21:52:10.296Z,19.25
2019-04-06T21:54:40.979Z,21.20
2019-04-06T21:57:11.525Z,23.52
2019-04-06T21:59:42.111Z,23.50
2019-04-06T22:02:12.527Z,21.52
2019-04-06T22:04:42.982Z,21.90
2019-04-06T22:07:14.143Z,23.18
2019-04-06T22:09:44.616Z,18.57
2019-04-06T22:12:15.145Z,23.67
2019-04-06T22:14:46.076Z,20.48
2019-04-06T22:17:16.712Z,19.52
2019-04-06T22:19:47.256Z,24.10
2019-04-06T22:22:18.017Z,21.02
2019-04-06T22:24:48.495Z,22.32
2019-04-06T22:27:18.945Z,27.45
2019-04-06T22:29:49.866Z,25.52
2019-04-06T22:32:21.290Z,26.12
2019-04-06T22:34:52.060Z,23.92
2019-04-06T22:37:22.561Z,22.45
2019-04-06T22:39:53.502Z,22.30
2019-04-06T22:42:23.985Z,25.08
2019-04-06T22:44:54.470Z,21.55
2019-04-06T22:47:25.322Z,25.52
2019-04-06T22:49:55.900Z,24.82
2019-04-06T22:52:26.346Z,22.37
2019-04-06T22:54:56.879Z,25.50
2019-04-06T22:57:27.304Z,26.00
2019-04-06T23:00:00.804Z,25.00
2019-04-06T23:02:37.266Z,23.32
2019-04-06T23:05:22.799Z,25.80
2019-04-06T23:07:53.469Z,19.85
2019-04-06T23:10:23.922Z,19.98
2019-04-06T23:12:54.276Z,23.62
2019-04-06T23:15:24.785Z,26.65
2019-04-06T23:17:55.533Z,26.12
2019-04-06T23:20:26.683Z,27.02
2019-04-06T23:22:57.265Z,30.43
2019-04-06T23:25:27.946Z,24.32
2019-04-06T23:27:58.438Z,27.30
2019-04-06T23:30:29.220Z,27.62
2019-04-06T23:32:59.739Z,24.70
2019-04-06T23:35:30.097Z,27.73
2019-04-06T23:38:00.703Z,27.27
2019-04-06T23:40:31.186Z,29.45
2019-04-06T23:43:01.810Z,28.42
2019-04-06T23:45:32.362Z,24.25
2019-04-06T23:48:02.815Z,22.85
2019-04-06T23:50:33.221Z,25.90
2019-04-06T23:53:04.200Z,22.90
2019-04-06T23:55:35.335Z,24.98
2019-04-06T23:58:05.813Z,28.67
